Kezdőlap
METAR-TAF:

METAR-TAF

Repülőterek :

Buenos Aires, Argentína

földrajzi szélesség: 34-34S, földrajzi hosszúság: 058-25W, magasság: 6 m

Jelenlegi meteorológiai megfigyelések

A jelentés 5 perccel ezelõtt készült, 10:12 UTC
Északkeleti szél 9 kt
Hőmérséklet 16°C
Páratartalom 72%
Légköri nyomás 1017 hPa
Látótávolság 10 km, vagy több
Záporok a közelben

METAR: SABE 251012Z 05009KT 9999 VCSH NSC 16/11 Q1017 TEMPO 7000 -RA

Idő: 07:17 (10:17 UTC)

Előrejelzés

A jelentés 5 órával és 17 perccel ezelõtt készült, 05:00 UTC
Az előrejelzés 25-én 06 óra UTC és 26-én 06 óra UTC között érvényes
Kelet-északkeleti szél 10 kt
Látótávolság 10 km, vagy több
felhőtlen 1500 m magasságban, és nincs gomolyfelhõ
25-én 07 óra UTC és 25-én 21 óra UTC között ideiglenes
Látótávolság: 8000 m
Szakadozott felhőzet 4000 lábon
Borult 10000 lábon
enyhe esõ,

TAF: SABE 250500Z 2506/2606 07010KT CAVOK TX19/2518Z TN14/2509Z TEMPO 2507/2521 8000 -RA BKN040 OVC100

Meteorológiai megfigyelések és előrejelzések több, mint 4000 repülőtéren (METAR és TAF jelentéseket).

A térképen piros és sárga pontok jelzik az elérhető meteorológiai állomásokat.

Mozgassa az egeret a pont fölött, hogy megjelenjen az állomás neve.

Azután kattintson az időjárási megfigyelések és előrejelzések megtekintéséhez.

A térkép megváltoztatása: kattintson a fekete keresztel jelölt zöld gombra ráközelítéshez, a vonallal jelölt zöld gombra távolításhoz, vagy a zöld nyilakra a szomszédos térképek eléréséhez.


METAR-TAF: